Terminal Aerodrome Forecast
Issued by NWS Quad Cities IA IL

Home | Current Version | Previous Version | Text Only | Print | Product List | Glossary On
Versions: 1 2 3 4 5 6 7 8 9 10 11 12 13 14 15 16 17 18 19 20 21 22
000
FTUS43 KDVN 142100 AAA
TAFDBQ
TAF AMD
KDBQ 142100Z 1421/1518 34012G20KT P6SM OVC025
     FM142200 33015KT P6SM BKN035
     FM150000 32005KT P6SM SCT250
     FM151500 32010KT P6SM SKC=

USA.gov is the U.S. government's official web portal to all federal, state and local government web resources and services.